Time;durP1;ratioP1;P1;durP2;ratioP2;P2;SDS_P1;SDS_P2;PMS_P1;PMS_P2;Temp;Humidity;BMP_temperature;BMP_pressure;BME280_temperature;BME280_humidity;BME280_pressure;Samples;Min_cycle;Max_cycle;Signal;HPM_P1;HPM_P2
2023/04/08 00:00:16;;;;;;;18.57;13.30;;;8.70;99.90;;;;;;5074325;28;20212;-83
2023/04/08 00:02:43;;;;;;;17.27;13.13;;;8.60;99.90;;;;;;5074377;28;20640;-83
2023/04/08 00:05:10;;;;;;;16.33;12.37;;;8.60;99.90;;;;;;5090251;28;20664;-83
2023/04/08 00:07:38;;;;;;;18.17;12.67;;;8.50;99.90;;;;;;5094622;28;20225;-83
2023/04/08 00:10:07;;;;;;;17.33;13.67;;;8.50;99.90;;;;;;5093334;28;20244;-83
2023/04/08 00:12:34;;;;;;;20.70;15.47;;;8.40;99.90;;;;;;5089913;28;20216;-83
2023/04/08 00:15:01;;;;;;;24.73;16.43;;;8.40;99.90;;;;;;5073233;28;20293;-81
2023/04/08 00:17:27;;;;;;;22.17;16.10;;;8.30;99.90;;;;;;5073888;28;20201;-81
2023/04/08 00:19:55;;;;;;;29.20;17.33;;;8.10;99.90;;;;;;5073057;28;20276;-82
2023/04/08 00:22:22;;;;;;;27.80;17.43;;;8.00;99.90;;;;;;5092096;28;20283;-80
2023/04/08 00:24:50;;;;;;;25.17;16.33;;;7.90;99.90;;;;;;5093663;28;20224;-82
2023/04/08 00:27:17;;;;;;;24.17;16.47;;;7.80;99.90;;;;;;5093283;28;20623;-82
2023/04/08 00:29:45;;;;;;;24.00;15.27;;;7.80;99.90;;;;;;5092245;28;20292;-81
2023/04/08 00:32:12;;;;;;;23.40;16.47;;;7.70;99.90;;;;;;5093558;28;20551;-82
2023/04/08 00:34:39;;;;;;;23.57;15.60;;;7.70;99.90;;;;;;5081135;28;20215;-80
2023/04/08 00:37:06;;;;;;;22.63;14.43;;;7.70;99.90;;;;;;5073433;28;20248;-80
2023/04/08 00:39:33;;;;;;;19.33;14.50;;;7.60;99.90;;;;;;5072659;28;20284;-81
2023/04/08 00:42:02;;;;;;;18.63;12.73;;;7.60;99.90;;;;;;5073122;28;20235;-82
2023/04/08 00:44:29;;;;;;;20.80;13.43;;;7.60;99.90;;;;;;5072999;28;20292;-81
2023/04/08 00:46:56;;;;;;;19.13;12.13;;;7.60;99.90;;;;;;5072392;28;20203;-82
2023/04/08 00:49:23;;;;;;;17.27;12.07;;;7.60;99.90;;;;;;5072893;28;20227;-81
2023/04/08 00:51:50;;;;;;;16.20;11.30;;;7.50;99.90;;;;;;5072617;28;20298;-81
2023/04/08 00:54:17;;;;;;;18.20;13.13;;;7.50;99.90;;;;;;5072623;28;20204;-81
2023/04/08 00:56:45;;;;;;;19.50;13.40;;;7.50;99.90;;;;;;5072418;28;20201;-81
2023/04/08 00:59:14;;;;;;;16.90;12.20;;;7.40;99.90;;;;;;5072759;28;20284;-81
2023/04/08 01:01:50;;;;;;;20.63;14.43;;;7.40;99.90;;;;;;5072048;28;20189;-82
2023/04/08 01:04:28;;;;;;;20.30;14.00;;;7.30;99.90;;;;;;5072885;28;20205;-80
2023/04/08 01:06:59;;;;;;;21.03;13.90;;;7.20;99.90;;;;;;5072818;28;20181;-80
2023/04/08 01:09:32;;;;;;;19.27;13.67;;;7.20;99.90;;;;;;5071986;28;20194;-80
2023/04/08 01:12:02;;;;;;;17.53;12.47;;;7.10;99.90;;;;;;5072381;28;20320;-79
2023/04/08 01:14:34;;;;;;;16.47;12.57;;;7.10;99.90;;;;;;5072764;28;20231;-82
2023/04/08 01:17:02;;;;;;;18.27;13.20;;;7.00;99.90;;;;;;5072415;28;20252;-80
2023/04/08 01:19:32;;;;;;;19.93;13.83;;;7.00;99.90;;;;;;5072310;28;20692;-80
2023/04/08 01:22:05;;;;;;;17.97;12.57;;;6.90;99.90;;;;;;5071626;28;20201;-81
2023/04/08 01:24:39;;;;;;;20.10;12.47;;;6.90;99.90;;;;;;5087278;28;20329;-81
2023/04/08 01:27:08;;;;;;;16.63;11.47;;;6.80;99.90;;;;;;5092469;28;20215;-80
2023/04/08 01:29:36;;;;;;;15.27;11.17;;;6.80;99.90;;;;;;5092338;28;20216;-81
2023/04/08 01:32:05;;;;;;;17.13;12.00;;;6.70;99.90;;;;;;5090980;28;20240;-80
2023/04/08 01:34:34;;;;;;;17.40;12.23;;;6.70;99.90;;;;;;5072415;28;20696;-82
2023/04/08 01:37:02;;;;;;;20.17;13.00;;;6.70;99.90;;;;;;5073057;28;20285;-82
2023/04/08 01:39:31;;;;;;;20.30;13.50;;;6.70;99.90;;;;;;5072824;28;20197;-82
2023/04/08 01:41:59;;;;;;;17.43;12.63;;;6.60;99.90;;;;;;5073234;28;20200;-82
2023/04/08 01:44:28;;;;;;;19.77;12.80;;;6.60;99.90;;;;;;5072706;28;20250;-82
2023/04/08 01:46:56;;;;;;;15.60;11.43;;;6.60;99.90;;;;;;5089686;28;20283;-81
2023/04/08 01:49:24;;;;;;;18.90;12.50;;;6.50;99.90;;;;;;5093959;28;20289;-82
2023/04/08 01:51:53;;;;;;;20.43;13.83;;;6.50;99.90;;;;;;5076598;28;20256;-82
2023/04/08 01:54:20;;;;;;;24.47;15.20;;;6.50;99.90;;;;;;5076684;28;20281;-82
2023/04/08 01:56:48;;;;;;;23.67;14.03;;;6.50;99.90;;;;;;5094473;28;20296;-82
2023/04/08 01:59:17;;;;;;;26.03;14.73;;;6.50;99.90;;;;;;5097377;28;20198;-83
2023/04/08 02:01:47;;;;;;;21.97;13.10;;;6.50;99.90;;;;;;5095694;28;20251;-82
2023/04/08 02:04:14;;;;;;;22.13;12.90;;;6.50;99.90;;;;;;5096784;28;20595;-83
2023/04/08 02:06:45;;;;;;;94.37;15.93;;;6.40;99.90;;;;;;5096867;28;20200;-83
2023/04/08 02:09:15;;;;;;;78.13;16.03;;;6.40;99.90;;;;;;5097065;28;20188;-83
2023/04/08 02:11:42;;;;;;;18.97;11.90;;;6.40;99.90;;;;;;5077911;28;20303;-83
2023/04/08 02:14:09;;;;;;;22.07;12.30;;;6.40;99.90;;;;;;5076430;28;20228;-82
2023/04/08 02:16:41;;;;;;;15.13;11.27;;;6.40;99.90;;;;;;5076398;28;20233;-83
2023/04/08 02:19:15;;;;;;;14.57;10.73;;;6.40;99.90;;;;;;5076337;28;20608;-82
2023/04/08 02:21:46;;;;;;;15.57;10.90;;;6.40;99.90;;;;;;5076155;28;20238;-83
2023/04/08 02:24:15;;;;;;;13.53;10.40;;;6.40;99.90;;;;;;5077606;28;20285;-83
2023/04/08 02:26:44;;;;;;;12.17;9.70;;;6.40;99.90;;;;;;5075936;28;20544;-83
2023/04/08 02:29:15;;;;;;;12.63;9.60;;;6.30;99.90;;;;;;5075820;28;20201;-83
2023/04/08 02:31:43;;;;;;;12.80;9.63;;;6.30;99.90;;;;;;5076706;28;20261;-81
2023/04/08 02:34:12;;;;;;;11.83;9.70;;;6.30;99.90;;;;;;5075747;28;20208;-82
2023/04/08 02:36:41;;;;;;;10.63;8.87;;;6.30;99.90;;;;;;5076310;28;20209;-82
2023/04/08 02:39:08;;;;;;;11.03;8.93;;;6.30;99.90;;;;;;5075261;28;20193;-83
2023/04/08 02:41:35;;;;;;;14.70;10.50;;;6.30;99.90;;;;;;5076015;28;20190;-82
2023/04/08 02:44:02;;;;;;;11.73;9.03;;;6.20;99.90;;;;;;5084547;28;20218;-82
2023/04/08 02:46:29;;;;;;;13.00;9.60;;;6.20;99.90;;;;;;5095445;28;20620;-83
2023/04/08 02:48:56;;;;;;;11.13;8.87;;;6.10;99.90;;;;;;5095888;28;20236;-82
2023/04/08 02:51:25;;;;;;;11.17;9.17;;;6.10;99.90;;;;;;5089159;28;20221;-83
2023/04/08 02:53:51;;;;;;;12.30;9.67;;;6.10;99.90;;;;;;5075259;28;20270;-83
2023/04/08 02:56:18;;;;;;;12.07;9.77;;;6.10;99.90;;;;;;5075122;28;20240;-82
2023/04/08 02:58:46;;;;;;;13.80;10.80;;;6.00;99.90;;;;;;5074359;28;20236;-82
2023/04/08 03:01:12;;;;;;;13.93;11.13;;;6.00;99.90;;;;;;5075281;28;20288;-83
2023/04/08 03:03:39;;;;;;;12.47;9.07;;;6.00;99.90;;;;;;5074852;28;20285;-82
2023/04/08 03:06:06;;;;;;;13.87;11.53;;;5.90;99.90;;;;;;5074183;28;20228;-82
2023/04/08 03:08:34;;;;;;;13.23;10.77;;;5.90;99.90;;;;;;5074029;28;20201;-82
2023/04/08 03:11:01;;;;;;;12.40;10.23;;;5.90;99.90;;;;;;5074432;28;20229;-81
2023/04/08 03:13:30;;;;;;;12.93;10.60;;;5.80;99.90;;;;;;5074537;28;20245;-81
2023/04/08 03:15:57;;;;;;;12.43;10.40;;;5.80;99.90;;;;;;5073790;28;20366;-82
2023/04/08 03:18:24;;;;;;;11.03;9.33;;;5.70;99.90;;;;;;5074187;28;20602;-82
2023/04/08 03:20:51;;;;;;;11.90;10.37;;;5.70;99.90;;;;;;5074875;28;20193;-81
2023/04/08 03:23:18;;;;;;;14.00;11.83;;;5.70;99.90;;;;;;5073930;28;20198;-81
2023/04/08 03:25:47;;;;;;;15.03;12.73;;;5.70;99.90;;;;;;5074600;28;20580;-82
2023/04/08 03:28:14;;;;;;;13.93;12.27;;;5.60;99.90;;;;;;5092519;28;20205;-81
2023/04/08 03:30:41;;;;;;;14.33;12.17;;;5.60;99.90;;;;;;5094192;28;20197;-82
2023/04/08 03:33:08;;;;;;;14.07;11.50;;;5.60;99.90;;;;;;5087058;28;20288;-82
2023/04/08 03:35:36;;;;;;;13.67;11.27;;;5.50;99.90;;;;;;5074075;28;20292;-83
2023/04/08 03:38:03;;;;;;;14.93;11.93;;;5.50;99.90;;;;;;5077128;28;20211;-83
2023/04/08 03:40:30;;;;;;;15.00;13.40;;;5.50;99.90;;;;;;5084437;28;20288;-82
2023/04/08 03:42:58;;;;;;;15.97;13.17;;;5.50;99.90;;;;;;5073443;28;20318;-81
2023/04/08 03:45:25;;;;;;;14.10;12.53;;;5.40;99.90;;;;;;5073687;28;20240;-82
2023/04/08 03:47:52;;;;;;;14.03;12.27;;;5.40;99.90;;;;;;5073985;28;20251;-81
2023/04/08 03:50:19;;;;;;;14.73;12.93;;;5.30;99.90;;;;;;5073718;28;20835;-82
2023/04/08 03:52:46;;;;;;;18.10;15.33;;;5.30;99.90;;;;;;5075151;28;20550;-82
2023/04/08 03:55:12;;;;;;;20.70;16.07;;;5.30;99.90;;;;;;5073738;28;20203;-81
2023/04/08 03:57:39;;;;;;;18.50;15.27;;;5.30;99.90;;;;;;5073655;28;20280;-82
2023/04/08 04:00:10;;;;;;;18.07;15.33;;;5.30;99.90;;;;;;5074259;28;20197;-82
2023/04/08 04:02:37;;;;;;;19.23;15.87;;;5.20;99.90;;;;;;5075249;28;20201;-82
2023/04/08 04:05:04;;;;;;;18.83;15.70;;;5.20;99.90;;;;;;5073665;28;20303;-81
2023/04/08 04:07:31;;;;;;;20.87;16.10;;;5.20;99.90;;;;;;5082063;28;20204;-81
2023/04/08 04:09:58;;;;;;;20.57;16.73;;;5.10;99.90;;;;;;5093496;28;20220;-82
2023/04/08 04:12:26;;;;;;;20.00;15.47;;;5.10;99.90;;;;;;5093960;28;20699;-80
2023/04/08 04:14:53;;;;;;;20.10;15.37;;;5.10;99.90;;;;;;5093728;28;20227;-82
2023/04/08 04:17:21;;;;;;;20.77;16.53;;;5.10;99.90;;;;;;5093880;28;20315;-81
2023/04/08 04:19:48;;;;;;;20.37;15.93;;;5.00;99.90;;;;;;5093743;28;20203;-81
2023/04/08 04:22:15;;;;;;;16.77;13.57;;;5.00;99.90;;;;;;5093708;28;20228;-80
2023/04/08 04:24:46;;;;;;;23.80;16.47;;;5.00;99.90;;;;;;5093843;28;20287;-81
2023/04/08 04:27:13;;;;;;;17.00;14.67;;;4.90;99.90;;;;;;5094195;28;20224;-82
2023/04/08 04:29:40;;;;;;;19.57;16.03;;;4.90;99.90;;;;;;5093097;28;20196;-83
2023/04/08 04:32:07;;;;;;;21.07;17.93;;;4.90;99.90;;;;;;5093531;28;20221;-82
2023/04/08 04:34:36;;;;;;;20.87;17.23;;;4.80;99.90;;;;;;5075152;28;20229;-81
2023/04/08 04:37:03;;;;;;;20.77;16.43;;;4.80;99.90;;;;;;5073829;28;20239;-81
2023/04/08 04:39:30;;;;;;;24.53;18.40;;;4.80;99.90;;;;;;5073028;28;20193;-81
2023/04/08 04:41:57;;;;;;;20.07;16.70;;;4.70;99.90;;;;;;5073607;28;20212;-82
2023/04/08 04:44:24;;;;;;;19.50;16.57;;;4.70;99.90;;;;;;5073099;28;20555;-82
2023/04/08 04:46:51;;;;;;;22.10;17.30;;;4.70;99.90;;;;;;5073280;28;20237;-82
2023/04/08 04:49:18;;;;;;;23.13;18.27;;;4.60;99.90;;;;;;5073470;28;20204;-82
2023/04/08 04:51:46;;;;;;;23.67;18.67;;;4.60;99.90;;;;;;5073299;28;20720;-82
2023/04/08 04:54:13;;;;;;;23.33;18.00;;;4.60;99.90;;;;;;5072707;28;20205;-82
2023/04/08 04:56:40;;;;;;;21.67;17.87;;;4.60;99.90;;;;;;5072712;28;20285;-80
2023/04/08 04:59:07;;;;;;;21.43;17.73;;;4.60;99.90;;;;;;5072935;28;20231;-81
2023/04/08 05:01:34;;;;;;;22.23;18.23;;;4.50;99.90;;;;;;5072372;28;20216;-79
2023/04/08 05:04:01;;;;;;;24.10;18.13;;;4.60;99.90;;;;;;5072896;28;20621;-81
2023/04/08 05:06:28;;;;;;;23.60;17.73;;;4.50;99.90;;;;;;5073150;28;20282;-81
2023/04/08 05:08:56;;;;;;;21.47;17.70;;;4.50;99.90;;;;;;5072334;28;20229;-82
2023/04/08 05:11:23;;;;;;;22.17;17.00;;;4.50;99.90;;;;;;5073063;28;20312;-82
2023/04/08 05:13:50;;;;;;;22.37;18.13;;;4.50;99.90;;;;;;5072211;28;20252;-81
2023/04/08 05:16:17;;;;;;;20.70;16.10;;;4.50;99.90;;;;;;5072928;28;20598;-81
2023/04/08 05:18:44;;;;;;;22.63;17.87;;;4.40;99.90;;;;;;5072848;28;20239;-81
2023/04/08 05:21:11;;;;;;;23.10;18.17;;;4.40;99.90;;;;;;5072055;28;20231;-82
2023/04/08 05:23:38;;;;;;;21.90;17.07;;;4.40;99.90;;;;;;5072966;28;20197;-81
2023/04/08 05:26:08;;;;;;;21.13;17.23;;;4.40;99.90;;;;;;5072908;28;20539;-82
2023/04/08 05:28:36;;;;;;;21.67;16.80;;;4.40;99.90;;;;;;5072190;28;20190;-80
2023/04/08 05:31:02;;;;;;;22.07;17.40;;;4.40;99.90;;;;;;5072603;28;20521;-81
2023/04/08 05:33:29;;;;;;;23.77;19.80;;;4.40;99.90;;;;;;5073685;28;20212;-83
2023/04/08 05:35:56;;;;;;;24.90;19.20;;;4.40;99.90;;;;;;5072360;28;20221;-83
2023/04/08 05:38:23;;;;;;;26.07;20.47;;;4.40;99.90;;;;;;5072976;28;20593;-83
2023/04/08 05:40:50;;;;;;;24.03;19.17;;;4.40;99.90;;;;;;5081748;28;20311;-81
2023/04/08 05:43:18;;;;;;;28.00;20.27;;;4.40;99.90;;;;;;5092595;28;20624;-80
2023/04/08 05:45:45;;;;;;;26.47;20.17;;;4.50;99.90;;;;;;5075431;28;20205;-81
2023/04/08 05:48:12;;;;;;;24.57;19.03;;;4.50;99.90;;;;;;5072768;28;20277;-81
2023/04/08 05:50:39;;;;;;;24.47;19.10;;;4.50;99.90;;;;;;5072617;28;20207;-82
2023/04/08 05:53:06;;;;;;;26.67;19.13;;;4.60;99.90;;;;;;5072762;28;20217;-80
2023/04/08 05:55:33;;;;;;;23.33;18.40;;;4.60;99.90;;;;;;5076859;28;20544;-80
2023/04/08 05:58:00;;;;;;;25.63;20.23;;;4.60;99.90;;;;;;5078740;28;20514;-80
2023/04/08 06:00:28;;;;;;;26.80;19.70;;;4.60;99.90;;;;;;5072984;28;20292;-81
2023/04/08 06:02:55;;;;;;;25.83;19.40;;;4.70;99.90;;;;;;5072751;28;20232;-81
2023/04/08 06:05:22;;;;;;;27.93;19.77;;;4.70;99.90;;;;;;5072351;28;20236;-82
2023/04/08 06:07:49;;;;;;;26.23;19.70;;;4.80;99.90;;;;;;5071973;28;20619;-81
2023/04/08 06:10:16;;;;;;;27.43;19.70;;;4.80;99.90;;;;;;5081307;28;20197;-81
2023/04/08 06:12:43;;;;;;;26.00;18.97;;;4.90;99.90;;;;;;5092377;28;20637;-81
2023/04/08 06:15:10;;;;;;;25.87;19.43;;;4.90;99.90;;;;;;5080583;28;20284;-82
2023/04/08 06:17:38;;;;;;;25.47;19.50;;;5.00;99.90;;;;;;5072103;28;20597;-82
2023/04/08 06:20:08;;;;;;;26.83;19.90;;;5.00;99.90;;;;;;5074247;28;20285;-83
2023/04/08 06:22:35;;;;;;;22.63;17.60;;;5.00;99.90;;;;;;5092746;28;20548;-83
2023/04/08 06:25:02;;;;;;;21.70;18.07;;;5.10;99.90;;;;;;5084126;28;20205;-82
2023/04/08 06:27:29;;;;;;;21.80;18.87;;;5.10;99.90;;;;;;5072959;28;20208;-84
2023/04/08 06:29:56;;;;;;;24.50;18.10;;;5.20;99.90;;;;;;5072480;28;20288;-81
2023/04/08 06:32:23;;;;;;;25.80;18.07;;;5.30;99.90;;;;;;5085554;28;20234;-84
2023/04/08 06:34:51;;;;;;;23.80;18.50;;;5.40;99.90;;;;;;5092434;28;20197;-83
2023/04/08 06:37:18;;;;;;;22.37;16.73;;;5.40;99.90;;;;;;5075985;28;20676;-83
2023/04/08 06:39:45;;;;;;;23.13;17.17;;;5.50;99.90;;;;;;5075100;28;20292;-83
2023/04/08 06:42:12;;;;;;;20.23;15.70;;;5.60;99.90;;;;;;5074862;28;20193;-83
2023/04/08 06:44:39;;;;;;;19.20;15.80;;;5.60;99.90;;;;;;5070864;28;20205;-82
2023/04/08 06:47:06;;;;;;;21.87;17.27;;;5.70;99.90;;;;;;5095866;28;20226;-81
2023/04/08 06:49:32;;;;;;;21.27;16.90;;;5.80;99.90;;;;;;5095874;28;20196;-82
2023/04/08 06:52:01;;;;;;;22.60;17.13;;;5.80;99.90;;;;;;5096370;28;20220;-84
2023/04/08 06:54:28;;;;;;;20.30;16.53;;;5.90;99.90;;;;;;5083640;28;20201;-82
2023/04/08 06:56:55;;;;;;;23.93;16.37;;;6.00;99.90;;;;;;5077047;28;20228;-81
2023/04/08 06:59:21;;;;;;;22.93;15.10;;;6.10;99.90;;;;;;5096134;28;20210;-82
2023/04/08 07:02:26;;;;;;;19.80;15.20;;;6.10;99.90;;;;;;5081510;28;20196;-84
2023/04/08 07:04:53;;;;;;;18.93;14.57;;;6.20;99.90;;;;;;5106314;28;20204;-84
2023/04/08 07:07:23;;;;;;;19.40;14.90;;;6.30;99.90;;;;;;5086536;28;20255;-83
2023/04/08 07:09:50;;;;;;;21.17;15.67;;;6.30;99.90;;;;;;5115170;28;20278;-84
2023/04/08 07:12:17;;;;;;;19.97;14.97;;;6.50;99.90;;;;;;5091958;28;20225;-85
2023/04/08 07:14:44;;;;;;;19.23;15.37;;;6.50;99.90;;;;;;5083214;28;20297;-83
2023/04/08 07:17:11;;;;;;;20.73;15.73;;;6.60;99.90;;;;;;5088398;28;20243;-84
2023/04/08 07:19:39;;;;;;;20.23;15.27;;;6.70;99.90;;;;;;5087037;28;20279;-83
2023/04/08 07:22:06;;;;;;;16.53;13.40;;;6.70;99.90;;;;;;5093452;28;20185;-83
2023/04/08 07:24:35;;;;;;;18.50;14.87;;;6.80;99.90;;;;;;5094447;28;20292;-82
2023/04/08 07:27:02;;;;;;;20.20;14.33;;;6.90;99.90;;;;;;5093435;28;20223;-82
2023/04/08 07:29:28;;;;;;;19.50;15.43;;;6.90;99.90;;;;;;5092600;28;20288;-83
2023/04/08 07:31:55;;;;;;;17.63;13.63;;;7.00;99.90;;;;;;5089690;28;20242;-84
2023/04/08 07:34:22;;;;;;;17.07;13.03;;;7.00;99.90;;;;;;5073935;28;20205;-82
2023/04/08 07:36:49;;;;;;;17.27;13.60;;;7.10;99.90;;;;;;5073967;28;20197;-83
2023/04/08 07:39:16;;;;;;;14.97;11.90;;;7.20;99.90;;;;;;5074254;28;20254;-82
2023/04/08 07:41:45;;;;;;;15.93;13.50;;;7.30;99.90;;;;;;5074347;28;20243;-84
2023/04/08 07:44:15;;;;;;;16.70;13.33;;;7.40;99.90;;;;;;5074425;28;20285;-82
2023/04/08 07:46:44;;;;;;;14.93;12.73;;;7.50;99.90;;;;;;5075206;28;20288;-83
2023/04/08 07:49:11;;;;;;;17.73;12.40;;;7.60;99.90;;;;;;5074706;28;20224;-83
2023/04/08 07:51:38;;;;;;;15.63;13.43;;;7.60;99.90;;;;;;5074848;28;20237;-84
2023/04/08 07:54:05;;;;;;;18.27;12.50;;;7.70;99.90;;;;;;5074757;28;20221;-85
2023/04/08 07:56:32;;;;;;;13.77;11.60;;;7.70;99.90;;;;;;5074291;28;20296;-84
2023/04/08 07:59:00;;;;;;;15.13;12.07;;;7.80;99.90;;;;;;5074752;28;20205;-85
2023/04/08 08:01:29;;;;;;;13.50;11.43;;;7.80;99.90;;;;;;5074445;28;20204;-83
2023/04/08 08:03:56;;;;;;;13.20;11.33;;;7.90;99.90;;;;;;5074707;28;20208;-85
2023/04/08 08:06:23;;;;;;;12.73;10.87;;;8.10;99.90;;;;;;5074250;28;20204;-84
2023/04/08 08:08:50;;;;;;;14.70;11.70;;;8.20;99.90;;;;;;5074476;28;20197;-82
2023/04/08 08:11:17;;;;;;;12.77;10.23;;;8.30;99.90;;;;;;5074423;28;20255;-85
2023/04/08 08:13:44;;;;;;;13.57;11.07;;;8.50;99.90;;;;;;5090920;28;20266;-82
2023/04/08 08:16:12;;;;;;;12.90;10.60;;;8.60;99.90;;;;;;5094088;28;20246;-83
2023/04/08 08:18:40;;;;;;;12.37;10.63;;;8.80;99.90;;;;;;5082320;28;20209;-82
2023/04/08 08:21:07;;;;;;;12.63;10.63;;;8.90;99.90;;;;;;5073885;28;20254;-84
2023/04/08 08:23:34;;;;;;;13.00;10.17;;;9.20;99.90;;;;;;5073859;28;20232;-83
2023/04/08 08:26:01;;;;;;;12.10;10.50;;;9.40;99.90;;;;;;5072851;28;20225;-83
2023/04/08 08:28:29;;;;;;;11.73;10.30;;;9.50;99.90;;;;;;5074086;28;20226;-82
2023/04/08 08:30:56;;;;;;;11.40;9.83;;;9.70;99.90;;;;;;5073085;28;20224;-82
2023/04/08 08:33:24;;;;;;;11.27;10.10;;;9.90;99.90;;;;;;5082962;28;20255;-81
2023/04/08 08:35:52;;;;;;;11.77;10.30;;;10.10;99.90;;;;;;5093285;28;20197;-84
2023/04/08 08:38:19;;;;;;;15.37;11.50;;;10.20;99.90;;;;;;5092991;28;20212;-81
2023/04/08 08:40:46;;;;;;;11.50;10.07;;;10.40;99.90;;;;;;5093692;28;20207;-81
2023/04/08 08:43:13;;;;;;;13.30;11.20;;;10.40;99.90;;;;;;5093386;28;20223;-84
2023/04/08 08:45:41;;;;;;;12.23;10.17;;;10.50;99.90;;;;;;5093101;28;20535;-83
2023/04/08 08:48:08;;;;;;;13.37;10.93;;;10.60;99.90;;;;;;5080501;28;20202;-84
2023/04/08 08:50:36;;;;;;;12.33;10.77;;;10.70;99.90;;;;;;5073892;28;20204;-81
2023/04/08 08:53:03;;;;;;;14.03;11.30;;;10.80;99.90;;;;;;5073369;28;20217;-83
2023/04/08 08:55:32;;;;;;;17.53;13.33;;;10.90;99.90;;;;;;5072486;28;20265;-81
2023/04/08 08:58:00;;;;;;;12.77;10.40;;;10.90;99.90;;;;;;5073967;28;20405;-84
2023/04/08 09:00:34;;;;;;;12.50;11.20;;;11.00;99.90;;;;;;5073428;28;20683;-83
2023/04/08 09:03:23;;;;;;;12.40;11.07;;;11.00;99.90;;;;;;5072842;28;20189;-79
2023/04/08 09:05:53;;;;;;;11.87;10.60;;;11.10;99.90;;;;;;5087109;28;20206;-79
2023/04/08 09:08:30;;;;;;;14.90;11.20;;;11.20;99.90;;;;;;5097318;28;20258;-83
2023/04/08 09:11:12;;;;;;;12.10;10.40;;;11.40;99.90;;;;;;5073413;28;20197;-85
2023/04/08 09:13:39;;;;;;;11.33;9.80;;;11.50;99.90;;;;;;5087988;28;20232;-85
2023/04/08 09:16:08;;;;;;;12.30;10.97;;;11.60;99.90;;;;;;5093485;28;20735;-83
2023/04/08 09:18:36;;;;;;;12.27;10.83;;;11.70;99.90;;;;;;5083661;28;20208;-81
2023/04/08 09:21:07;;;;;;;12.67;11.33;;;11.70;99.90;;;;;;5073241;28;20213;-83
2023/04/08 09:23:42;;;;;;;12.67;11.37;;;11.80;99.90;;;;;;5073505;28;20280;-86
2023/04/08 09:26:10;;;;;;;13.57;11.03;;;11.90;99.90;;;;;;5073683;28;20283;-85
2023/04/08 09:28:37;;;;;;;11.13;9.87;;;11.90;99.90;;;;;;5090954;28;20212;-86
2023/04/08 09:31:22;;;;;;;11.10;9.87;;;11.80;99.90;;;;;;5090598;28;20203;-81
2023/04/08 09:33:50;;;;;;;12.27;10.73;;;11.90;99.90;;;;;;5073376;28;20307;-82
2023/04/08 09:36:18;;;;;;;12.60;10.63;;;11.90;99.90;;;;;;5072314;28;20205;-81
2023/04/08 09:38:45;;;;;;;11.33;10.13;;;11.80;99.90;;;;;;5072308;28;20201;-82
2023/04/08 09:41:14;;;;;;;12.50;10.90;;;11.90;99.90;;;;;;5072404;28;20205;-81
2023/04/08 09:43:47;;;;;;;12.43;11.13;;;12.00;99.90;;;;;;5072363;28;20229;-81
2023/04/08 09:46:17;;;;;;;12.17;10.90;;;12.00;99.90;;;;;;5071726;28;20201;-79
2023/04/08 09:48:50;;;;;;;13.70;10.50;;;11.90;99.90;;;;;;5070668;28;20280;-79
2023/04/08 09:51:24;;;;;;;14.30;10.87;;;12.00;99.90;;;;;;5071399;28;20656;-79
2023/04/08 09:53:59;;;;;;;15.43;11.20;;;12.00;99.90;;;;;;5070984;28;20243;-78
2023/04/08 09:56:30;;;;;;;11.43;10.23;;;12.30;99.90;;;;;;5070153;28;20200;-78
2023/04/08 09:59:01;;;;;;;14.97;11.57;;;12.60;99.90;;;;;;5071070;28;20296;-79
2023/04/08 10:01:34;;;;;;;11.20;10.10;;;12.80;99.90;;;;;;5071745;28;20551;-77
2023/04/08 10:04:05;;;;;;;12.57;10.70;;;12.80;99.90;;;;;;5071010;28;20188;-78
2023/04/08 10:06:34;;;;;;;11.20;10.00;;;12.80;99.90;;;;;;5072823;28;20301;-81
2023/04/08 10:09:03;;;;;;;12.37;11.07;;;12.90;99.90;;;;;;5075369;28;20691;-79
2023/04/08 10:11:31;;;;;;;11.80;10.57;;;12.90;99.90;;;;;;5091855;28;20208;-79
2023/04/08 10:13:58;;;;;;;12.50;10.23;;;13.20;99.90;;;;;;5095165;28;20307;-82
2023/04/08 10:16:26;;;;;;;12.33;11.03;;;13.40;99.90;;;;;;5089372;28;20225;-78
2023/04/08 10:18:54;;;;;;;15.03;11.93;;;13.50;99.90;;;;;;5075850;28;20201;-79
2023/04/08 10:21:42;;;;;;;13.47;10.77;;;13.50;99.90;;;;;;5075674;28;20228;-79
2023/04/08 10:24:10;;;;;;;12.87;10.33;;;13.50;99.90;;;;;;5074635;28;20228;-78
2023/04/08 10:26:39;;;;;;;12.60;11.30;;;13.40;99.90;;;;;;5074698;28;20211;-80
2023/04/08 10:29:31;;;;;;;12.40;11.10;;;13.60;99.90;;;;;;5074572;28;20524;-81
2023/04/08 10:32:00;;;;;;;12.53;11.23;;;13.90;99.90;;;;;;5074773;28;20200;-83
2023/04/08 10:34:27;;;;;;;12.43;11.23;;;14.00;99.90;;;;;;5075030;28;20275;-81
2023/04/08 10:36:57;;;;;;;14.90;11.30;;;14.00;99.90;;;;;;5075184;28;20251;-81
2023/04/08 10:39:26;;;;;;;12.00;10.80;;;13.90;99.90;;;;;;5074822;28;20220;-80
2023/04/08 10:41:53;;;;;;;12.83;11.50;;;13.80;99.90;;;;;;5075125;28;20217;-82
2023/04/08 10:44:21;;;;;;;12.53;11.10;;;13.60;99.90;;;;;;5074531;28;20203;-80
2023/04/08 10:46:50;;;;;;;11.20;10.10;;;13.70;99.90;;;;;;5074782;28;20201;-81
2023/04/08 10:49:18;;;;;;;12.87;11.47;;;13.80;99.90;;;;;;5074733;28;20198;-80
2023/04/08 10:51:45;;;;;;;12.73;11.43;;;13.80;99.90;;;;;;5074318;28;20779;-81
2023/04/08 10:54:15;;;;;;;11.53;10.37;;;13.90;99.90;;;;;;5074810;28;20229;-80
2023/04/08 10:56:46;;;;;;;12.13;10.93;;;13.90;99.90;;;;;;5074244;28;20250;-80
2023/04/08 10:59:15;;;;;;;12.60;11.33;;;14.20;99.90;;;;;;5074159;28;20209;-81
2023/04/08 11:01:44;;;;;;;12.93;11.53;;;14.30;99.90;;;;;;5085452;28;20258;-84
2023/04/08 11:04:15;;;;;;;12.23;11.03;;;14.10;99.90;;;;;;5095346;28;20209;-81
2023/04/08 11:06:43;;;;;;;13.97;11.70;;;14.40;99.90;;;;;;5094218;28;20232;-81
2023/04/08 11:09:11;;;;;;;11.97;10.77;;;14.60;99.90;;;;;;5094948;28;20201;-84
2023/04/08 11:11:41;;;;;;;12.93;11.63;;;14.80;99.90;;;;;;5081236;28;20206;-82
2023/04/08 11:14:08;;;;;;;12.77;11.47;;;14.80;99.90;;;;;;5074167;28;20593;-84
2023/04/08 11:16:35;;;;;;;12.45;11.05;;;15.00;99.90;;;;;;5093967;28;20575;-79
2023/04/08 11:19:04;;;;;;;11.98;10.70;;;15.00;99.90;;;;;;5086127;28;20197;-83
2023/04/08 11:21:31;;;;;;;12.37;11.17;;;14.90;99.90;;;;;;5075171;28;20205;-85
2023/04/08 11:23:58;;;;;;;12.57;11.27;;;14.70;99.90;;;;;;5075278;28;20751;-86
2023/04/08 11:26:27;;;;;;;12.85;10.88;;;14.60;99.90;;;;;;5075426;28;20324;-82
2023/04/08 11:28:57;;;;;;;11.50;10.30;;;14.60;99.90;;;;;;5074477;28;20214;-87
2023/04/08 11:31:24;;;;;;;11.23;10.13;;;14.70;99.90;;;;;;5074940;28;20209;-83
2023/04/08 11:33:53;;;;;;;10.98;9.85;;;14.90;99.90;;;;;;5074216;28;20232;-83
2023/04/08 11:36:21;;;;;;;11.67;10.47;;;15.00;99.90;;;;;;5074266;28;20284;-78
2023/04/08 11:38:48;;;;;;;12.00;10.68;;;14.90;99.90;;;;;;5073791;28;20201;-79
2023/04/08 11:41:16;;;;;;;10.63;9.53;;;14.90;99.90;;;;;;5086055;28;20280;-77
2023/04/08 11:43:55;;;;;;;10.95;9.63;;;14.90;99.90;;;;;;5094100;28;20255;-77
2023/04/08 11:46:22;;;;;;;11.05;9.95;;;15.20;99.90;;;;;;5093866;28;20211;-77
2023/04/08 11:49:03;;;;;;;11.95;10.75;;;15.50;99.90;;;;;;5092262;28;20208;-78
2023/04/08 11:51:30;;;;;;;12.48;10.95;;;15.80;99.90;;;;;;5077844;28;20214;-79
2023/04/08 11:53:57;;;;;;;10.45;9.38;;;16.00;99.90;;;;;;5100794;28;20216;-78
2023/04/08 11:56:25;;;;;;;11.13;9.95;;;16.30;99.90;;;;;;5091063;28;20200;-78
2023/04/08 11:58:52;;;;;;;11.93;9.85;;;16.50;99.90;;;;;;5093360;28;20200;-78
2023/04/08 12:01:21;;;;;;;13.02;10.43;;;16.70;99.90;;;;;;5088990;28;20206;-78
2023/04/08 12:03:59;;;;;;;10.75;9.65;;;16.60;99.90;;;;;;5090769;28;20503;-80
2023/04/08 12:06:27;;;;;;;11.70;10.50;;;16.40;99.90;;;;;;5090617;28;20271;-79
2023/04/08 12:08:55;;;;;;;12.27;10.15;;;16.50;99.90;;;;;;5092569;28;20212;-79
2023/04/08 12:11:22;;;;;;;11.43;9.85;;;16.30;99.90;;;;;;5073967;28;20213;-79
2023/04/08 12:13:51;;;;;;;12.63;9.63;;;16.30;99.90;;;;;;5073110;28;20253;-79
2023/04/08 12:16:18;;;;;;;11.40;9.93;;;16.30;99.90;;;;;;5090192;28;20264;-78
2023/04/08 12:18:47;;;;;;;9.95;8.90;;;16.10;99.90;;;;;;5093211;28;20200;-77
2023/04/08 12:21:14;;;;;;;9.60;8.27;;;16.00;99.90;;;;;;5093257;28;20554;-80
2023/04/08 12:23:41;;;;;;;11.32;7.60;;;16.00;99.90;;;;;;5084615;28;20255;-80
2023/04/08 12:26:08;;;;;;;12.73;9.02;;;15.70;99.90;;;;;;5091002;28;20280;-79
2023/04/08 12:28:35;;;;;;;9.52;8.32;;;15.80;99.90;;;;;;5093404;28;20193;-81
2023/04/08 12:31:02;;;;;;;8.95;8.05;;;15.80;99.90;;;;;;5092073;28;20197;-85
2023/04/08 12:33:29;;;;;;;8.23;7.35;;;15.80;99.90;;;;;;5091927;28;20287;-82
2023/04/08 12:35:58;;;;;;;9.43;8.18;;;15.80;99.90;;;;;;5092839;28;20214;-82
2023/04/08 12:38:25;;;;;;;10.63;8.60;;;15.80;99.90;;;;;;5092824;28;20201;-81
2023/04/08 12:40:52;;;;;;;9.45;8.45;;;15.70;99.90;;;;;;5093270;28;20200;-83